createdAt,value
2022-12-01T00:00:59.080Z,8.57
2022-12-01T00:03:25.768Z,8.46
2022-12-01T00:06:02.965Z,8.55
2022-12-01T00:08:29.656Z,8.62
2022-12-01T00:10:56.427Z,8.71
2022-12-01T00:13:23.104Z,8.71
2022-12-01T00:15:49.751Z,8.72
2022-12-01T00:18:16.411Z,8.82
2022-12-01T00:20:43.040Z,9.06
2022-12-01T00:23:09.684Z,9.00
2022-12-01T00:25:36.383Z,8.79
2022-12-01T00:28:02.994Z,8.87
2022-12-01T00:30:29.584Z,8.95
2022-12-01T00:32:56.218Z,8.92
2022-12-01T00:35:22.901Z,9.01
2022-12-01T00:37:49.536Z,9.00
2022-12-01T00:40:16.157Z,8.92
2022-12-01T00:42:42.870Z,9.12
2022-12-01T00:45:10.132Z,9.07
2022-12-01T00:47:36.889Z,9.27
2022-12-01T00:50:03.605Z,9.35
2022-12-01T00:52:30.213Z,9.34
2022-12-01T00:54:56.862Z,9.25
2022-12-01T00:57:23.512Z,9.26
2022-12-01T00:59:50.412Z,8.82
2022-12-01T01:02:17.359Z,8.85
2022-12-01T01:04:44.047Z,8.70
2022-12-01T01:07:10.646Z,8.75
2022-12-01T01:09:37.283Z,8.52
2022-12-01T01:12:03.954Z,8.62
2022-12-01T01:14:30.571Z,8.67
2022-12-01T01:16:57.353Z,8.86
2022-12-01T01:19:24.011Z,8.83
2022-12-01T01:21:50.628Z,8.98
2022-12-01T01:24:17.416Z,9.11
2022-12-01T01:26:44.141Z,8.83
2022-12-01T01:29:10.805Z,8.98
2022-12-01T01:31:37.465Z,8.96
2022-12-01T01:34:04.065Z,8.63
2022-12-01T01:36:30.676Z,8.86
2022-12-01T01:38:57.373Z,8.91
2022-12-01T01:41:24.031Z,8.92
2022-12-01T01:43:57.532Z,8.74
2022-12-01T01:46:34.009Z,8.76
2022-12-01T01:49:11.183Z,8.92
2022-12-01T01:51:42.246Z,8.79
2022-12-01T01:54:18.659Z,8.85
2022-12-01T01:56:45.270Z,8.85
2022-12-01T01:59:12.638Z,8.78
2022-12-01T02:01:39.432Z,8.52
2022-12-01T02:04:06.143Z,8.66
2022-12-01T02:06:32.820Z,8.76
2022-12-01T02:08:59.531Z,8.76
2022-12-01T02:11:31.153Z,8.75
2022-12-01T02:14:14.378Z,8.51
2022-12-01T02:16:50.099Z,8.71
2022-12-01T02:19:45.012Z,8.90
2022-12-01T02:22:37.685Z,8.76
2022-12-01T02:25:13.055Z,8.93
2022-12-01T02:28:06.403Z,8.69
2022-12-01T02:30:43.528Z,8.89
2022-12-01T02:33:15.731Z,8.90
2022-12-01T02:35:59.736Z,9.14
2022-12-01T02:38:36.352Z,8.87
2022-12-01T02:41:27.365Z,9.21
2022-12-01T02:44:08.952Z,9.32
2022-12-01T02:46:41.430Z,9.33
2022-12-01T02:49:19.526Z,9.33
2022-12-01T02:51:46.171Z,9.30
2022-12-01T02:54:13.647Z,9.49
2022-12-01T02:56:40.245Z,9.23
2022-12-01T02:59:10.946Z,9.26
2022-12-01T03:01:46.758Z,9.18
2022-12-01T03:04:46.443Z,9.23
2022-12-01T03:07:36.270Z,9.12
2022-12-01T03:10:40.475Z,9.13
2022-12-01T03:13:13.830Z,9.06
2022-12-01T03:15:58.948Z,8.99
2022-12-01T03:18:43.672Z,8.90
2022-12-01T03:21:17.828Z,8.92
2022-12-01T03:23:47.989Z,8.89
2022-12-01T03:26:16.522Z,8.90
2022-12-01T03:28:46.114Z,9.13
2022-12-01T03:31:15.852Z,9.04
2022-12-01T03:34:05.237Z,8.77
2022-12-01T03:36:45.542Z,9.03
2022-12-01T03:39:13.328Z,9.06
2022-12-01T03:41:45.658Z,9.12
2022-12-01T03:44:20.267Z,9.31
2022-12-01T03:46:53.868Z,9.19
2022-12-01T03:49:20.575Z,9.14
2022-12-01T03:52:10.542Z,9.19
2022-12-01T03:55:09.416Z,9.39
2022-12-01T03:58:12.176Z,9.32
2022-12-01T04:00:38.804Z,8.88
2022-12-01T04:03:05.629Z,8.79
2022-12-01T04:05:33.434Z,8.96
2022-12-01T04:08:00.396Z,8.96
2022-12-01T04:10:27.147Z,8.96
2022-12-01T04:12:53.764Z,8.97
2022-12-01T04:15:20.406Z,9.16
2022-12-01T04:17:47.048Z,9.32
2022-12-01T04:20:14.285Z,9.41
2022-12-01T04:22:40.927Z,9.55
2022-12-01T04:25:07.912Z,9.63
2022-12-01T04:27:34.594Z,9.58
2022-12-01T04:30:01.194Z,9.41
2022-12-01T04:32:27.824Z,9.54
2022-12-01T04:34:54.629Z,9.38
2022-12-01T04:37:21.223Z,9.39
2022-12-01T04:39:48.209Z,9.26
2022-12-01T04:42:15.260Z,9.43
2022-12-01T04:44:41.894Z,9.38
2022-12-01T04:47:08.602Z,9.35
2022-12-01T04:49:35.349Z,9.26
2022-12-01T04:52:02.003Z,9.25
2022-12-01T04:54:28.645Z,8.87
2022-12-01T04:56:55.248Z,8.72
2022-12-01T04:59:21.879Z,8.74
2022-12-01T05:01:48.571Z,8.69
2022-12-01T05:04:15.257Z,8.64
2022-12-01T05:06:41.887Z,8.51
2022-12-01T05:09:12.187Z,8.69
2022-12-01T05:11:42.374Z,8.80
2022-12-01T05:14:09.007Z,8.48
2022-12-01T05:16:35.778Z,8.45
2022-12-01T05:19:04.387Z,8.52
2022-12-01T05:21:30.985Z,8.73
2022-12-01T05:23:57.572Z,8.84
2022-12-01T05:26:24.209Z,8.94
2022-12-01T05:28:53.367Z,8.73
2022-12-01T05:31:20.011Z,8.33
2022-12-01T05:33:46.965Z,8.24
2022-12-01T05:36:13.604Z,8.48
2022-12-01T05:38:40.301Z,8.53
2022-12-01T05:41:06.947Z,8.61
2022-12-01T05:43:33.591Z,8.51
2022-12-01T05:46:00.299Z,8.71
2022-12-01T05:48:26.933Z,8.76
2022-12-01T05:50:53.580Z,8.90
2022-12-01T05:53:20.200Z,8.91
2022-12-01T05:55:46.976Z,8.68
2022-12-01T05:58:13.574Z,8.72
2022-12-01T06:00:45.689Z,8.86
2022-12-01T06:03:13.376Z,9.02
2022-12-01T06:05:40.292Z,8.78
2022-12-01T06:08:07.129Z,8.82
2022-12-01T06:10:33.732Z,8.55
2022-12-01T06:13:00.385Z,8.63
2022-12-01T06:15:27.301Z,8.64
2022-12-01T06:17:53.929Z,8.68
2022-12-01T06:20:20.541Z,8.67
2022-12-01T06:22:48.194Z,8.51
2022-12-01T06:25:14.865Z,8.60
2022-12-01T06:27:41.539Z,8.60
2022-12-01T06:30:08.734Z,8.81
2022-12-01T06:32:35.932Z,8.94
2022-12-01T06:35:02.717Z,9.08
2022-12-01T06:37:29.336Z,9.00
2022-12-01T06:39:56.097Z,8.90
2022-12-01T06:42:22.723Z,9.03
2022-12-01T06:44:49.325Z,9.01
2022-12-01T06:47:15.949Z,9.04
2022-12-01T06:49:42.584Z,9.03
2022-12-01T06:52:09.653Z,8.94
2022-12-01T06:54:36.307Z,8.72
2022-12-01T06:57:02.905Z,8.83
2022-12-01T06:59:29.526Z,8.46
2022-12-01T07:01:56.336Z,8.50
2022-12-01T07:04:23.034Z,8.63
2022-12-01T07:06:49.659Z,8.67
2022-12-01T07:09:16.260Z,8.87
2022-12-01T07:11:42.921Z,8.63
2022-12-01T07:14:16.448Z,8.91
2022-12-01T07:16:43.161Z,8.97
2022-12-01T07:19:09.944Z,8.86
2022-12-01T07:21:36.616Z,8.94
2022-12-01T07:24:05.660Z,9.03
2022-12-01T07:26:32.265Z,9.11
2022-12-01T07:28:58.868Z,8.95
2022-12-01T07:31:25.571Z,8.88
2022-12-01T07:33:52.505Z,8.97
2022-12-01T07:36:19.092Z,9.12
2022-12-01T07:38:45.753Z,9.25
2022-12-01T07:41:16.338Z,9.10
2022-12-01T07:43:43.004Z,9.02
2022-12-01T07:46:21.736Z,9.01
2022-12-01T07:48:49.258Z,9.00
2022-12-01T07:51:15.961Z,8.94
2022-12-01T07:53:43.329Z,9.04
2022-12-01T07:56:10.000Z,8.96
2022-12-01T07:58:36.663Z,8.93
2022-12-01T08:01:13.488Z,9.12
2022-12-01T08:03:40.297Z,9.09
2022-12-01T08:06:07.099Z,8.86
2022-12-01T08:08:34.700Z,8.92
2022-12-01T08:11:02.795Z,9.22
2022-12-01T08:13:29.447Z,9.40
2022-12-01T08:15:56.139Z,9.32
2022-12-01T08:18:23.066Z,9.41
2022-12-01T08:20:50.324Z,9.50
2022-12-01T08:23:17.121Z,9.40
2022-12-01T08:25:44.968Z,9.36
2022-12-01T08:28:11.697Z,9.54
2022-12-01T08:30:38.273Z,9.20
2022-12-01T08:33:04.936Z,9.30
2022-12-01T08:35:31.600Z,9.46
2022-12-01T08:37:58.253Z,9.31
2022-12-01T08:40:25.089Z,9.17
2022-12-01T08:42:52.088Z,9.43
2022-12-01T08:45:18.784Z,9.78
2022-12-01T08:47:46.451Z,9.73
2022-12-01T08:50:13.052Z,9.76
2022-12-01T08:52:39.649Z,9.87
2022-12-01T08:55:07.005Z,9.70
2022-12-01T08:57:33.670Z,9.73
2022-12-01T09:00:00.435Z,9.62
2022-12-01T09:02:27.165Z,9.68
2022-12-01T09:04:53.900Z,9.86
2022-12-01T09:07:26.148Z,9.69
2022-12-01T09:09:53.419Z,9.71
2022-12-01T09:12:20.059Z,9.53
2022-12-01T09:14:46.728Z,9.61
2022-12-01T09:17:13.707Z,9.35
2022-12-01T09:19:40.300Z,9.15
2022-12-01T09:22:06.940Z,9.54
2022-12-01T09:24:33.578Z,9.73
2022-12-01T09:27:00.171Z,9.97
2022-12-01T09:29:26.767Z,10.23
2022-12-01T09:31:55.644Z,10.43
2022-12-01T09:34:22.234Z,10.33
2022-12-01T09:36:49.156Z,10.48
2022-12-01T09:39:17.621Z,10.51
2022-12-01T09:41:48.934Z,10.18
2022-12-01T09:44:16.396Z,10.15
2022-12-01T09:47:06.139Z,10.02
2022-12-01T09:49:47.393Z,9.89
2022-12-01T09:52:16.898Z,9.87
2022-12-01T09:54:43.495Z,9.96
2022-12-01T09:57:31.822Z,9.95
2022-12-01T09:59:59.066Z,10.12
2022-12-01T10:02:31.582Z,10.11
2022-12-01T10:04:59.305Z,9.94
2022-12-01T10:07:32.054Z,10.01
2022-12-01T10:10:05.246Z,10.21
2022-12-01T10:12:33.934Z,10.11
2022-12-01T10:15:26.394Z,10.37
2022-12-01T10:18:21.973Z,10.65
2022-12-01T10:21:00.600Z,10.74
2022-12-01T10:23:36.152Z,10.72
2022-12-01T10:26:04.869Z,10.92
2022-12-01T10:28:39.261Z,10.96
2022-12-01T10:31:28.408Z,10.98
2022-12-01T10:33:54.956Z,11.12
2022-12-01T10:36:22.038Z,11.02
2022-12-01T10:38:48.662Z,11.07
2022-12-01T10:41:15.246Z,11.16
2022-12-01T10:43:47.461Z,11.14
2022-12-01T10:46:44.757Z,11.25
2022-12-01T10:49:15.132Z,11.10
2022-12-01T10:51:55.907Z,10.53
2022-12-01T10:54:23.948Z,10.70
2022-12-01T10:56:54.753Z,10.84
2022-12-01T10:59:31.598Z,11.01
2022-12-01T11:01:58.643Z,11.00
2022-12-01T11:04:52.619Z,10.74
2022-12-01T11:07:29.596Z,10.94
2022-12-01T11:10:05.036Z,11.20
2022-12-01T11:12:31.724Z,11.35
2022-12-01T11:14:58.325Z,11.37
2022-12-01T11:17:41.218Z,11.23
2022-12-01T11:20:27.707Z,11.04
2022-12-01T11:23:19.573Z,11.33
2022-12-01T11:25:58.376Z,11.35
2022-12-01T11:28:25.008Z,11.58
2022-12-01T11:30:58.485Z,11.28
2022-12-01T11:33:25.450Z,11.46
2022-12-01T11:35:53.091Z,11.48
2022-12-01T11:38:30.949Z,11.25
2022-12-01T11:40:57.745Z,11.34
2022-12-01T11:43:29.546Z,11.23
2022-12-01T11:45:57.188Z,11.39
2022-12-01T11:48:31.346Z,11.31
2022-12-01T11:51:01.922Z,11.43
2022-12-01T11:53:33.222Z,11.37
2022-12-01T11:56:19.833Z,11.20
2022-12-01T11:58:47.764Z,11.25
2022-12-01T12:01:21.824Z,11.51
2022-12-01T12:04:00.876Z,11.45
2022-12-01T12:06:41.160Z,11.39
2022-12-01T12:09:10.705Z,11.47
2022-12-01T12:11:44.038Z,11.53
2022-12-01T12:14:58.283Z,11.75
2022-12-01T12:17:52.385Z,11.86
2022-12-01T12:20:56.662Z,11.16
2022-12-01T12:23:32.495Z,11.36
2022-12-01T12:26:20.672Z,11.25
2022-12-01T12:29:02.516Z,11.30
2022-12-01T12:31:56.159Z,11.00
2022-12-01T12:34:35.197Z,10.94
2022-12-01T12:37:10.620Z,11.00
2022-12-01T12:39:50.850Z,11.01
2022-12-01T12:42:33.006Z,11.27
2022-12-01T12:45:07.376Z,11.21
2022-12-01T12:47:51.382Z,11.21
2022-12-01T12:50:27.645Z,11.51
2022-12-01T12:52:57.336Z,11.78
2022-12-01T12:55:30.673Z,11.85
2022-12-01T12:58:11.239Z,11.74
2022-12-01T13:00:40.701Z,11.89
2022-12-01T13:03:21.029Z,11.64
2022-12-01T13:05:54.292Z,11.52
2022-12-01T13:08:29.445Z,11.52
2022-12-01T13:11:00.838Z,11.40
2022-12-01T13:14:07.490Z,11.32
2022-12-01T13:16:37.023Z,11.56
2022-12-01T13:19:11.781Z,11.25
2022-12-01T13:21:41.012Z,11.18
2022-12-01T13:24:08.074Z,11.21
2022-12-01T13:26:35.371Z,11.16
2022-12-01T13:29:03.227Z,11.29
2022-12-01T13:31:29.907Z,11.46
2022-12-01T13:34:04.153Z,11.50
2022-12-01T13:36:46.224Z,11.31
2022-12-01T13:39:24.465Z,11.38
2022-12-01T13:42:19.598Z,11.46
2022-12-01T13:44:57.358Z,11.78
2022-12-01T13:47:47.059Z,11.89
2022-12-01T13:50:35.376Z,12.04
2022-12-01T13:53:28.955Z,12.18
2022-12-01T13:55:58.499Z,12.11
2022-12-01T13:58:32.282Z,12.00
2022-12-01T14:01:21.261Z,11.82
2022-12-01T14:03:57.860Z,11.85
2022-12-01T14:06:31.388Z,11.78
2022-12-01T14:09:02.382Z,11.66
2022-12-01T14:11:29.478Z,11.53
2022-12-01T14:14:20.016Z,11.30
2022-12-01T14:16:55.208Z,11.47
2022-12-01T14:19:45.074Z,11.60
2022-12-01T14:22:38.180Z,11.47
2022-12-01T14:25:25.587Z,11.25
2022-12-01T14:28:02.683Z,11.32
2022-12-01T14:30:41.479Z,11.23
2022-12-01T14:33:56.143Z,11.26
2022-12-01T14:36:41.828Z,11.25
2022-12-01T14:39:08.352Z,11.23
2022-12-01T14:41:42.180Z,10.93
2022-12-01T14:44:32.284Z,11.02
2022-12-01T14:47:16.853Z,11.12
2022-12-01T14:50:03.269Z,11.31
2022-12-01T14:52:37.672Z,11.16
2022-12-01T14:55:08.117Z,11.29
2022-12-01T14:57:37.762Z,11.04
2022-12-01T15:00:08.750Z,11.21
2022-12-01T15:02:38.926Z,10.98
2022-12-01T15:05:11.315Z,11.10
2022-12-01T15:07:39.211Z,11.08
2022-12-01T15:10:06.660Z,10.84
2022-12-01T15:12:33.295Z,11.03
2022-12-01T15:14:59.924Z,10.97
2022-12-01T15:17:33.370Z,10.96
2022-12-01T15:20:00.636Z,10.93
2022-12-01T15:22:30.932Z,10.99
2022-12-01T15:25:08.451Z,10.79
2022-12-01T15:27:35.133Z,10.78
2022-12-01T15:30:01.764Z,10.71
2022-12-01T15:32:28.444Z,10.72
2022-12-01T15:34:55.310Z,10.73
2022-12-01T15:37:22.930Z,10.81
2022-12-01T15:39:51.512Z,10.88
2022-12-01T15:42:31.567Z,11.04
2022-12-01T15:45:04.017Z,10.96
2022-12-01T15:47:32.773Z,10.93
2022-12-01T15:49:59.373Z,10.78
2022-12-01T15:52:26.037Z,10.76
2022-12-01T15:54:52.898Z,10.77
2022-12-01T15:57:20.146Z,10.60
2022-12-01T15:59:51.012Z,10.58
2022-12-01T16:02:20.524Z,10.73
2022-12-01T16:04:47.748Z,10.57
2022-12-01T16:07:14.477Z,10.52
2022-12-01T16:09:42.623Z,10.51
2022-12-01T16:12:09.179Z,10.47
2022-12-01T16:14:36.486Z,10.44
2022-12-01T16:17:03.976Z,10.52
2022-12-01T16:19:31.366Z,10.42
2022-12-01T16:22:18.628Z,10.55
2022-12-01T16:24:50.187Z,10.26
2022-12-01T16:27:24.049Z,10.22
2022-12-01T16:29:56.359Z,10.34
2022-12-01T16:32:39.403Z,10.23
2022-12-01T16:35:07.240Z,10.27
2022-12-01T16:37:33.872Z,10.14
2022-12-01T16:40:00.581Z,10.10
2022-12-01T16:42:27.308Z,10.26
2022-12-01T16:44:54.170Z,10.27
2022-12-01T16:47:24.644Z,10.32
2022-12-01T16:49:51.809Z,10.40
2022-12-01T16:55:06.037Z,10.02
2022-12-01T16:57:32.728Z,10.05
2022-12-01T16:59:59.453Z,10.15
2022-12-01T17:02:26.129Z,10.01
2022-12-01T17:04:53.032Z,10.16
2022-12-01T17:07:19.891Z,10.04
2022-12-01T17:09:47.758Z,9.79
2022-12-01T17:12:14.373Z,9.90
2022-12-01T17:14:41.026Z,9.86
2022-12-01T17:17:07.699Z,9.96
2022-12-01T17:19:34.346Z,9.84
2022-12-01T17:22:00.988Z,9.85
2022-12-01T17:24:27.633Z,9.92
2022-12-01T17:26:54.282Z,9.84
2022-12-01T17:29:20.985Z,10.10
2022-12-01T17:31:47.707Z,10.11
2022-12-01T17:34:14.399Z,10.14
2022-12-01T17:36:41.106Z,10.19
2022-12-01T17:39:07.719Z,10.24
2022-12-01T17:41:34.398Z,10.46
2022-12-01T17:44:04.268Z,10.47
2022-12-01T17:46:31.319Z,10.34
2022-12-01T17:48:58.451Z,10.45
2022-12-01T17:51:25.122Z,10.42
2022-12-01T17:53:53.278Z,10.54
2022-12-01T17:56:19.869Z,10.51
2022-12-01T17:58:46.506Z,10.62
2022-12-01T18:01:14.529Z,10.76
2022-12-01T18:03:41.144Z,10.83
2022-12-01T18:06:07.882Z,10.87
2022-12-01T18:08:34.823Z,10.83
2022-12-01T18:11:02.070Z,10.80
2022-12-01T18:13:28.710Z,10.92
2022-12-01T18:15:55.417Z,10.92
2022-12-01T18:18:22.040Z,11.03
2022-12-01T18:20:48.664Z,11.03
2022-12-01T18:23:15.307Z,11.05
2022-12-01T18:25:41.972Z,10.96
2022-12-01T18:28:08.628Z,10.98
2022-12-01T18:30:35.298Z,10.85
2022-12-01T18:33:01.965Z,10.83
2022-12-01T18:35:31.709Z,10.92
2022-12-01T18:37:58.646Z,10.93
2022-12-01T18:40:25.313Z,11.01
2022-12-01T18:42:51.955Z,10.88
2022-12-01T18:45:21.314Z,10.61
2022-12-01T18:47:48.268Z,10.69
2022-12-01T18:50:15.053Z,10.77
2022-12-01T18:52:41.703Z,10.82
2022-12-01T18:55:08.630Z,10.90
2022-12-01T18:57:35.241Z,10.87
2022-12-01T19:00:02.604Z,10.91
2022-12-01T19:02:29.320Z,10.97
2022-12-01T19:04:55.990Z,11.03
2022-12-01T19:07:26.600Z,10.93
2022-12-01T19:09:56.374Z,10.94
2022-12-01T19:12:23.017Z,11.06
2022-12-01T19:14:49.969Z,11.00
2022-12-01T19:17:16.936Z,11.04
2022-12-01T19:19:43.600Z,10.97
2022-12-01T19:22:10.381Z,11.00
2022-12-01T19:24:37.101Z,10.88
2022-12-01T19:27:03.748Z,10.95
2022-12-01T19:29:30.502Z,10.95
2022-12-01T19:31:57.338Z,10.98
2022-12-01T19:34:24.010Z,10.83
2022-12-01T19:36:50.614Z,10.84
2022-12-01T19:39:17.304Z,10.94
2022-12-01T19:41:43.905Z,10.81
2022-12-01T19:44:10.627Z,10.94
2022-12-01T19:46:37.334Z,10.97
2022-12-01T19:49:04.292Z,10.86
2022-12-01T19:51:32.709Z,10.87
2022-12-01T19:53:59.323Z,10.95
2022-12-01T19:56:26.002Z,11.01
2022-12-01T19:58:52.705Z,11.00
2022-12-01T20:01:19.694Z,10.87
2022-12-01T20:03:47.517Z,10.91
2022-12-01T20:06:16.436Z,10.93
2022-12-01T20:08:43.357Z,10.99
2022-12-01T20:11:10.099Z,10.95
2022-12-01T20:13:38.273Z,10.99
2022-12-01T20:16:09.457Z,10.93
2022-12-01T20:18:36.367Z,10.77
2022-12-01T20:21:04.647Z,10.65
2022-12-01T20:23:31.293Z,10.75
2022-12-01T20:26:02.382Z,10.79
2022-12-01T20:28:29.165Z,10.77
2022-12-01T20:30:55.837Z,10.71
2022-12-01T20:33:22.499Z,10.66
2022-12-01T20:35:49.190Z,10.59
2022-12-01T20:38:15.799Z,10.58
2022-12-01T20:40:42.440Z,10.58
2022-12-01T20:43:09.086Z,10.34
2022-12-01T20:45:35.725Z,10.42
2022-12-01T20:48:02.497Z,10.51
2022-12-01T20:50:29.184Z,10.63
2022-12-01T20:52:55.830Z,10.54
2022-12-01T20:55:22.440Z,10.50
2022-12-01T20:57:49.096Z,10.54
2022-12-01T21:00:15.990Z,10.70
2022-12-01T21:02:42.716Z,10.70
2022-12-01T21:05:09.539Z,10.45
2022-12-01T21:07:36.207Z,10.46
2022-12-01T21:10:03.516Z,10.58
2022-12-01T21:12:30.188Z,10.49
2022-12-01T21:15:12.112Z,10.56
2022-12-01T21:17:48.285Z,10.43
2022-12-01T21:20:41.445Z,10.46
2022-12-01T21:23:12.417Z,10.28
2022-12-01T21:25:39.440Z,10.50
2022-12-01T21:28:18.416Z,10.46
2022-12-01T21:30:46.744Z,10.59
2022-12-01T21:33:34.286Z,10.65
2022-12-01T21:36:18.384Z,10.62
2022-12-01T21:38:45.089Z,10.71
2022-12-01T21:41:37.649Z,10.68
2022-12-01T21:44:11.475Z,10.55
2022-12-01T21:46:38.073Z,10.52
2022-12-01T21:49:31.450Z,10.42
2022-12-01T21:51:58.170Z,9.92
2022-12-01T21:54:24.798Z,10.07
2022-12-01T21:56:52.587Z,9.96
2022-12-01T21:59:20.516Z,10.04
2022-12-01T22:01:47.968Z,10.01
2022-12-01T22:04:29.551Z,10.13
2022-12-01T22:06:56.702Z,10.35
2022-12-01T22:09:27.518Z,10.34
2022-12-01T22:11:56.208Z,10.37
2022-12-01T22:14:24.441Z,10.25
2022-12-01T22:16:59.814Z,10.37
2022-12-01T22:19:34.061Z,10.29
2022-12-01T22:22:09.763Z,10.13
2022-12-01T22:24:43.499Z,10.23
2022-12-01T22:27:38.452Z,10.42
2022-12-01T22:30:07.902Z,10.39
2022-12-01T22:32:56.978Z,10.34
2022-12-01T22:35:28.363Z,10.41
2022-12-01T22:38:03.708Z,10.47
2022-12-01T22:40:37.835Z,10.58
2022-12-01T22:43:25.014Z,10.32
2022-12-01T22:46:10.486Z,10.14
2022-12-01T22:48:47.078Z,10.18
2022-12-01T22:51:13.570Z,10.21
2022-12-01T22:53:42.159Z,10.20
2022-12-01T22:56:24.084Z,10.38
2022-12-01T22:58:50.763Z,10.48
2022-12-01T23:01:27.834Z,10.50
2022-12-01T23:04:24.258Z,10.57
2022-12-01T23:06:50.745Z,10.59
2022-12-01T23:09:17.346Z,10.71
2022-12-01T23:11:44.568Z,10.76
2022-12-01T23:14:20.195Z,10.80
2022-12-01T23:16:46.814Z,10.78
2022-12-01T23:19:13.430Z,10.80
2022-12-01T23:21:40.059Z,10.81
2022-12-01T23:24:07.021Z,10.76
2022-12-01T23:26:33.747Z,10.84
2022-12-01T23:29:00.418Z,10.92
2022-12-01T23:31:27.163Z,10.57
2022-12-01T23:33:53.882Z,10.77
2022-12-01T23:36:20.386Z,10.78
2022-12-01T23:38:48.183Z,10.77
2022-12-01T23:41:32.810Z,10.82
2022-12-01T23:44:01.409Z,10.81
2022-12-01T23:46:28.096Z,10.79
2022-12-01T23:49:10.071Z,10.78
2022-12-01T23:51:47.989Z,10.66
2022-12-01T23:54:23.967Z,10.72
2022-12-01T23:56:55.175Z,10.80
2022-12-01T23:59:21.808Z,10.83
